Time;durP1;ratioP1;P1;durP2;ratioP2;P2;SDS_P1;SDS_P2;PMS_P1;PMS_P2;Temp;Humidity;BMP_temperature;BMP_pressure;BME280_temperature;BME280_humidity;BME280_pressure;Samples;Min_cycle;Max_cycle;Signal;HPM_P1;HPM_P2
2023/08/17 00:00:13;;;;;;;;;2.00;1.00;;;;;23.81;64.62;100280.75;5037393;28;45485;-74
2023/08/17 00:02:40;;;;;;;;;1.00;1.00;;;;;24.16;65.23;100335.75;5037545;28;45486;-74
2023/08/17 00:05:08;;;;;;;;;2.00;2.00;;;;;24.17;64.68;100339.28;5037360;28;45494;-74
2023/08/17 00:07:34;;;;;;;;;1.00;1.00;;;;;23.89;64.23;100297.38;5034922;28;45489;-74
2023/08/17 00:10:00;;;;;;;;;1.00;1.00;;;;;24.02;65.22;100325.47;5037899;28;45439;-74
2023/08/17 00:12:26;;;;;;;;;2.00;2.00;;;;;24.05;64.63;100328.97;5037571;28;45597;-74
2023/08/17 00:14:53;;;;;;;;;1.00;1.00;;;;;24.04;64.87;100333.44;5034105;28;45557;-74
2023/08/17 00:17:19;;;;;;;;;1.33;1.33;;;;;23.91;65.08;100316.91;5049854;28;46316;-74
2023/08/17 00:19:45;;;;;;;;;2.00;2.00;;;;;23.89;65.29;100313.41;5037346;28;45524;-73
2023/08/17 00:22:11;;;;;;;;;2.33;1.67;;;;;23.94;65.77;100319.50;5037067;28;45316;-74
2023/08/17 00:24:37;;;;;;;;;2.00;1.00;;;;;23.99;65.47;100322.00;5037308;28;45486;-74
2023/08/17 00:27:03;;;;;;;;;1.00;1.00;;;;;24.02;65.52;100314.81;5036331;28;45295;-74
2023/08/17 00:29:30;;;;;;;;;1.33;1.33;;;;;24.04;65.28;100309.44;5036429;28;45494;-74
2023/08/17 00:31:55;;;;;;;;;0.67;0.67;;;;;23.96;67.48;100314.97;5035927;28;45408;-74
2023/08/17 00:34:21;;;;;;;;;2.33;2.33;;;;;23.94;67.20;100314.16;5037224;28;45608;-74
2023/08/17 00:36:47;;;;;;;;;3.00;2.00;;;;;24.01;67.54;100315.75;5036430;28;45331;-74
2023/08/17 00:39:12;;;;;;;;;2.00;2.00;;;;;24.03;67.64;100313.00;5037389;28;45501;-75
2023/08/17 00:41:38;;;;;;;;;2.00;2.00;;;;;24.08;66.96;100321.75;5036833;28;45586;-74
2023/08/17 00:44:04;;;;;;;;;2.00;2.00;;;;;23.87;66.02;100269.03;5035853;28;45848;-74
2023/08/17 00:46:30;;;;;;;;;2.00;2.00;;;;;24.06;66.53;100301.38;5036799;28;45434;-74
2023/08/17 00:48:58;;;;;;;;;2.67;2.00;;;;;24.10;67.06;100303.03;5036035;28;45377;-74
2023/08/17 00:51:24;;;;;;;;;2.33;2.00;;;;;24.08;66.89;100304.88;5036644;28;45398;-74
2023/08/17 00:53:54;;;;;;;;;2.00;2.00;;;;;24.14;66.50;100305.56;5035790;28;45505;-74
2023/08/17 00:56:21;;;;;;;;;1.00;1.00;;;;;24.18;66.88;100304.53;5036281;28;45477;-74
2023/08/17 00:58:47;;;;;;;;;2.00;2.00;;;;;24.19;66.47;100310.75;5034781;28;45484;-74
2023/08/17 01:01:13;;;;;;;;;2.00;2.00;;;;;24.06;67.32;100290.72;5035795;28;45676;-74
2023/08/17 01:03:41;;;;;;;;;2.67;2.00;;;;;24.01;67.42;100301.50;5036104;28;45514;-74
2023/08/17 01:06:07;;;;;;;;;2.67;2.00;;;;;24.02;67.25;100298.78;5051776;28;45352;-75
2023/08/17 01:08:33;;;;;;;;;3.00;2.00;;;;;24.03;67.29;100294.31;5035194;28;45440;-74
2023/08/17 01:11:04;;;;;;;;;3.67;3.00;;;;;24.06;67.77;100310.25;5036207;28;45288;-74
2023/08/17 01:13:33;;;;;;;;;2.00;2.00;;;;;24.04;67.75;100303.22;5034503;28;45352;-74
2023/08/17 01:16:06;;;;;;;;;2.67;2.00;;;;;23.97;67.50;100303.41;5036074;28;45509;-74
2023/08/17 01:18:35;;;;;;;;;2.33;2.00;;;;;23.92;67.84;100291.97;5036571;28;45421;-74
2023/08/17 01:21:03;;;;;;;;;2.33;2.00;;;;;23.84;68.15;100294.00;5034115;28;45417;-74
2023/08/17 01:23:29;;;;;;;;;1.00;1.00;;;;;23.82;68.56;100298.50;5035976;28;45538;-74
2023/08/17 01:25:57;;;;;;;;;4.00;3.00;;;;;23.85;68.16;100298.41;5036291;28;45455;-74
2023/08/17 01:28:23;;;;;;;;;2.33;2.33;;;;;23.91;67.77;100306.22;5036569;28;45632;-74
2023/08/17 01:31:08;;;;;;;;;2.67;2.67;;;;;23.94;67.92;100310.63;5036523;28;45288;-74
2023/08/17 01:33:49;;;;;;;;;2.67;2.00;;;;;23.90;67.42;100291.16;5037708;28;45526;-75
2023/08/17 01:36:32;;;;;;;;;2.33;2.00;;;;;23.90;67.78;100292.97;5031383;28;45609;-74
2023/08/17 01:38:59;;;;;;;;;1.33;1.33;;;;;23.97;67.90;100297.16;5036102;28;45482;-74
2023/08/17 01:41:26;;;;;;;;;2.67;2.00;;;;;23.97;67.72;100299.84;5036760;28;45518;-74
2023/08/17 01:43:53;;;;;;;;;2.00;2.00;;;;;23.94;67.63;100294.63;5036391;28;45301;-74
2023/08/17 01:46:19;;;;;;;;;4.00;2.00;;;;;23.89;68.23;100292.06;5036660;28;46035;-74
2023/08/17 01:48:46;;;;;;;;;1.00;1.00;;;;;23.87;67.88;100298.38;5035637;28;45786;-74
2023/08/17 01:51:19;;;;;;;;;3.00;2.00;;;;;23.92;67.66;100297.31;5036394;28;45467;-74
2023/08/17 01:53:46;;;;;;;;;2.00;2.00;;;;;23.91;67.98;100292.00;5034789;28;45555;-74
2023/08/17 01:56:11;;;;;;;;;2.00;2.00;;;;;23.89;68.00;100284.06;5036723;28;46017;-74
2023/08/17 01:58:37;;;;;;;;;3.00;2.00;;;;;23.93;67.74;100292.84;5029776;28;45427;-74
2023/08/17 02:01:03;;;;;;;;;2.00;2.00;;;;;23.86;67.61;100281.50;5036611;28;45482;-74
2023/08/17 02:03:28;;;;;;;;;2.33;1.33;;;;;23.98;67.42;100285.59;5035401;28;45415;-74
2023/08/17 02:05:58;;;;;;;;;3.00;3.00;;;;;23.97;67.46;100286.50;5035637;28;45405;-74
2023/08/17 02:08:23;;;;;;;;;2.00;2.00;;;;;24.00;67.04;100287.28;5033707;28;45419;-75
2023/08/17 02:10:49;;;;;;;;;2.00;2.00;;;;;23.93;66.96;100267.03;5035957;28;45557;-74
2023/08/17 02:13:16;;;;;;;;;1.00;1.00;;;;;23.98;67.13;100278.47;5036086;28;45379;-74
2023/08/17 02:15:42;;;;;;;;;2.00;2.00;;;;;23.88;67.17;100277.00;5029414;28;46577;-74
2023/08/17 02:18:08;;;;;;;;;1.33;1.33;;;;;23.91;67.50;100271.53;5035227;28;45504;-75
2023/08/17 02:20:33;;;;;;;;;2.00;2.00;;;;;23.98;67.51;100282.94;5035925;28;45561;-74
2023/08/17 02:22:59;;;;;;;;;4.00;3.00;;;;;23.98;67.72;100283.78;5035823;28;45566;-74
2023/08/17 02:25:25;;;;;;;;;2.33;2.00;;;;;23.93;67.76;100268.84;5035443;28;45308;-74
2023/08/17 02:27:50;;;;;;;;;2.00;2.00;;;;;23.91;68.17;100268.88;5036079;28;45346;-74
2023/08/17 02:30:16;;;;;;;;;2.00;2.00;;;;;23.81;67.57;100262.06;5036139;28;45526;-74
2023/08/17 02:32:42;;;;;;;;;1.00;1.00;;;;;23.79;67.64;100274.56;5033951;28;47586;-74
2023/08/17 02:35:08;;;;;;;;;1.33;1.33;;;;;23.70;68.27;100250.81;5029235;28;45513;-74
2023/08/17 02:37:33;;;;;;;;;3.00;3.00;;;;;23.75;68.26;100254.22;5036059;28;45347;-74
2023/08/17 02:39:59;;;;;;;;;2.00;2.00;;;;;23.72;68.06;100257.84;5035858;28;45479;-74
2023/08/17 02:42:25;;;;;;;;;3.67;2.00;;;;;23.71;68.29;100252.56;5036544;28;45391;-74
2023/08/17 02:44:51;;;;;;;;;1.33;1.33;;;;;23.68;67.97;100242.00;5037050;28;45415;-74
2023/08/17 02:47:16;;;;;;;;;2.00;2.00;;;;;23.71;67.62;100245.41;5036884;28;45403;-74
2023/08/17 02:49:42;;;;;;;;;1.00;1.00;;;;;23.74;67.83;100241.81;5036172;28;47142;-74
2023/08/17 02:52:08;;;;;;;;;3.00;3.00;;;;;23.78;68.19;100240.84;5036628;28;45307;-74
2023/08/17 02:54:33;;;;;;;;;1.00;1.00;;;;;23.75;68.29;100232.88;5031145;28;46907;-74
2023/08/17 02:56:59;;;;;;;;;4.00;3.00;;;;;23.72;68.42;100240.97;5035741;28;45494;-74
2023/08/17 02:59:25;;;;;;;;;2.00;2.00;;;;;23.62;68.91;100238.56;5035690;28;45565;-74
2023/08/17 03:01:51;;;;;;;;;1.00;1.00;;;;;23.56;69.13;100237.88;5035272;28;45641;-74
2023/08/17 03:04:16;;;;;;;;;3.00;3.00;;;;;23.45;68.85;100246.16;5035310;28;46116;-74
2023/08/17 03:06:42;;;;;;;;;3.67;3.00;;;;;23.37;68.55;100241.03;5033937;28;45499;-74
2023/08/17 03:09:08;;;;;;;;;2.00;2.00;;;;;23.42;68.48;100243.59;5034630;28;45624;-74
2023/08/17 03:11:33;;;;;;;;;2.00;2.00;;;;;23.48;68.92;100243.44;5034829;28;45490;-74
2023/08/17 03:14:02;;;;;;;;;2.00;2.00;;;;;23.47;68.85;100247.00;5034916;28;45430;-74
2023/08/17 03:16:29;;;;;;;;;3.00;2.00;;;;;23.47;68.82;100251.47;5030716;28;45522;-74
2023/08/17 03:18:56;;;;;;;;;3.33;3.00;;;;;23.43;69.37;100240.00;5034738;28;45648;-74
2023/08/17 03:21:22;;;;;;;;;2.00;2.00;;;;;23.50;69.32;100236.25;5034903;28;45547;-73
2023/08/17 03:23:48;;;;;;;;;1.00;1.00;;;;;23.37;68.89;100205.53;5034015;28;45394;-74
2023/08/17 03:26:14;;;;;;;;;2.00;2.00;;;;;23.55;68.49;100234.31;5037725;28;45453;-74
2023/08/17 03:28:40;;;;;;;;;2.00;1.00;;;;;23.57;68.66;100234.28;5036586;28;45304;-75
2023/08/17 03:31:08;;;;;;;;;2.00;1.00;;;;;23.60;69.17;100231.53;5038874;28;45252;-74
2023/08/17 03:33:34;;;;;;;;;2.00;1.00;;;;;23.55;68.93;100223.66;5033048;28;46643;-74
2023/08/17 03:36:00;;;;;;;;;1.67;1.67;;;;;23.60;68.36;100226.22;5038656;28;45491;-74
2023/08/17 03:38:25;;;;;;;;;2.00;2.00;;;;;23.56;68.51;100235.22;5035996;28;45559;-74
2023/08/17 03:40:51;;;;;;;;;1.00;1.00;;;;;23.50;68.40;100230.06;5039002;28;45426;-75
2023/08/17 03:43:17;;;;;;;;;2.00;1.00;;;;;23.48;68.74;100231.91;5038084;28;46184;-74
2023/08/17 03:45:42;;;;;;;;;1.00;1.00;;;;;23.48;68.70;100238.09;5024022;28;45463;-74
2023/08/17 03:48:09;;;;;;;;;0.33;0.33;;;;;23.42;68.27;100223.16;5037751;28;45569;-74
2023/08/17 03:50:34;;;;;;;;;2.00;1.00;;;;;23.36;68.29;100219.78;5038482;28;45522;-74
2023/08/17 03:53:00;;;;;;;;;2.00;2.00;;;;;23.46;68.62;100234.59;5038107;28;45462;-74
2023/08/17 03:55:26;;;;;;;;;2.00;2.00;;;;;23.50;68.53;100238.06;5038344;28;45536;-75
2023/08/17 03:57:51;;;;;;;;;1.00;1.00;;;;;23.40;68.94;100224.97;5037917;28;45355;-74
2023/08/17 04:00:17;;;;;;;;;1.00;1.00;;;;;23.37;68.72;100218.84;5038485;28;45383;-74
2023/08/17 04:02:43;;;;;;;;;1.00;1.00;;;;;23.43;68.56;100218.69;5037955;28;45940;-75
2023/08/17 04:05:09;;;;;;;;;2.00;2.00;;;;;23.36;68.89;100212.66;5036941;28;45597;-75
2023/08/17 04:07:36;;;;;;;;;1.00;1.00;;;;;23.43;68.82;100222.22;5037874;28;45453;-74
2023/08/17 04:10:03;;;;;;;;;1.33;1.33;;;;;23.48;68.44;100229.25;5038399;28;45562;-74
2023/08/17 04:12:29;;;;;;;;;1.00;1.00;;;;;23.38;68.57;100212.63;5038146;28;45442;-75
2023/08/17 04:14:54;;;;;;;;;1.00;1.00;;;;;23.30;68.38;100201.28;5022047;28;45361;-75
2023/08/17 04:17:20;;;;;;;;;1.33;1.00;;;;;23.22;68.73;100204.19;5052502;28;45524;-74
2023/08/17 04:19:46;;;;;;;;;1.00;0.00;;;;;23.18;68.52;100198.06;5036928;28;45306;-74
2023/08/17 04:22:12;;;;;;;;;2.00;1.00;;;;;23.22;68.54;100215.72;5037081;28;45745;-74
2023/08/17 04:24:38;;;;;;;;;2.00;1.00;;;;;23.22;68.96;100220.16;5038323;28;45675;-74
2023/08/17 04:27:04;;;;;;;;;0.00;0.00;;;;;23.22;68.36;100214.84;5037182;28;45304;-74
2023/08/17 04:29:31;;;;;;;;;1.67;1.33;;;;;23.21;68.94;100216.59;5038178;28;45419;-74
2023/08/17 04:31:57;;;;;;;;;1.00;1.00;;;;;23.12;68.99;100200.00;5037912;28;45646;-74
2023/08/17 04:34:23;;;;;;;;;2.00;2.00;;;;;23.12;69.21;100198.22;5037836;28;45616;-75
2023/08/17 04:36:48;;;;;;;;;2.00;1.67;;;;;23.06;69.29;100209.06;5036681;28;45297;-74
2023/08/17 04:39:14;;;;;;;;;1.00;1.00;;;;;22.98;69.09;100195.91;5037973;28;45526;-75
2023/08/17 04:41:40;;;;;;;;;1.00;1.00;;;;;23.00;69.64;100203.88;5038272;28;45562;-74
2023/08/17 04:44:05;;;;;;;;;2.00;2.00;;;;;23.03;69.27;100209.13;5037601;28;45225;-75
2023/08/17 04:46:31;;;;;;;;;3.00;2.00;;;;;22.99;68.76;100207.44;5037167;28;45541;-74
2023/08/17 04:48:57;;;;;;;;;2.00;1.00;;;;;23.00;69.23;100217.19;5036428;28;45485;-74
2023/08/17 04:51:22;;;;;;;;;1.33;1.33;;;;;22.96;68.80;100218.16;5037570;28;46106;-75
2023/08/17 04:53:48;;;;;;;;;1.00;1.00;;;;;22.67;68.89;100174.53;5037642;28;45454;-75
2023/08/17 04:56:13;;;;;;;;;1.00;1.00;;;;;22.86;69.05;100206.88;5036589;28;46317;-74
2023/08/17 04:58:39;;;;;;;;;2.33;1.00;;;;;22.74;69.25;100205.41;5037857;28;45614;-74
2023/08/17 05:01:05;;;;;;;;;1.00;1.00;;;;;22.74;69.72;100204.50;5037015;28;46487;-74
2023/08/17 05:03:31;;;;;;;;;2.33;2.00;;;;;22.57;69.36;100194.31;5037132;28;45474;-74
2023/08/17 05:05:56;;;;;;;;;1.00;1.00;;;;;22.62;69.19;100213.69;5037317;28;45411;-75
2023/08/17 05:08:22;;;;;;;;;0.33;0.33;;;;;22.60;69.82;100215.50;5037134;28;45391;-74
2023/08/17 05:10:49;;;;;;;;;1.00;1.00;;;;;22.55;69.63;100218.31;5036706;28;46142;-75
2023/08/17 05:13:14;;;;;;;;;2.00;1.00;;;;;22.38;69.29;100201.84;5037178;28;45739;-74
2023/08/17 05:15:40;;;;;;;;;1.00;1.00;;;;;22.47;69.60;100209.63;5036737;28;45499;-74
2023/08/17 05:18:06;;;;;;;;;1.00;1.00;;;;;22.48;69.23;100199.84;5037310;28;45364;-74
2023/08/17 05:20:31;;;;;;;;;2.67;2.00;;;;;22.47;69.34;100203.44;5036914;28;45566;-75
2023/08/17 05:22:57;;;;;;;;;2.67;2.00;;;;;22.45;69.51;100206.13;5036571;28;45572;-75
2023/08/17 05:25:23;;;;;;;;;2.00;2.00;;;;;22.48;68.98;100199.84;5036275;28;45436;-74
2023/08/17 05:27:51;;;;;;;;;2.00;2.00;;;;;22.46;68.89;100202.53;5031982;28;45386;-75
2023/08/17 05:30:17;;;;;;;;;1.00;1.00;;;;;22.32;69.05;100183.38;5024517;28;45614;-74
2023/08/17 05:32:43;;;;;;;;;2.00;1.00;;;;;22.49;68.85;100198.97;5036087;28;45640;-74
2023/08/17 05:35:08;;;;;;;;;1.00;1.00;;;;;22.46;68.29;100193.69;5034903;28;45468;-74
2023/08/17 05:37:34;;;;;;;;;1.00;1.00;;;;;22.53;68.66;100188.19;5036890;28;45395;-75
2023/08/17 05:40:00;;;;;;;;;1.67;1.00;;;;;22.58;68.11;100185.41;5026537;28;46760;-74
2023/08/17 05:42:25;;;;;;;;;2.00;2.00;;;;;22.63;67.83;100187.03;5033353;28;45343;-74
2023/08/17 05:44:51;;;;;;;;;2.00;1.00;;;;;22.71;67.48;100196.63;5035785;28;45404;-74
2023/08/17 05:47:19;;;;;;;;;2.00;1.00;;;;;22.61;67.50;100161.38;5036141;28;45393;-75
2023/08/17 05:49:45;;;;;;;;;2.67;2.00;;;;;22.76;67.39;100176.97;5036768;28;46252;-74
2023/08/17 05:52:12;;;;;;;;;2.00;2.00;;;;;22.77;67.23;100168.03;5036697;28;45450;-74
2023/08/17 05:54:38;;;;;;;;;1.33;1.33;;;;;22.79;67.54;100179.53;5036262;28;45402;-74
2023/08/17 05:57:03;;;;;;;;;2.00;2.00;;;;;22.76;67.68;100166.31;5036695;28;45353;-74
2023/08/17 05:59:29;;;;;;;;;2.00;2.00;;;;;22.84;67.95;100166.09;5034692;28;45404;-74
2023/08/17 06:01:55;;;;;;;;;2.00;2.00;;;;;22.95;67.24;100164.00;5036082;28;45430;-74
2023/08/17 06:04:20;;;;;;;;;2.00;2.00;;;;;23.12;66.78;100170.69;5035646;28;45466;-74
2023/08/17 06:06:46;;;;;;;;;2.00;2.00;;;;;23.34;66.78;100177.19;5036749;28;45605;-74
2023/08/17 06:09:12;;;;;;;;;1.00;1.00;;;;;23.53;65.96;100174.84;5036902;28;45526;-74
2023/08/17 06:11:39;;;;;;;;;2.00;1.33;;;;;23.79;65.30;100175.88;5036321;28;45454;-75
2023/08/17 06:14:05;;;;;;;;;2.00;2.00;;;;;23.87;65.13;100181.84;5035528;28;45526;-74
2023/08/17 06:16:31;;;;;;;;;2.00;2.00;;;;;23.81;64.59;100166.94;5036290;28;45536;-75
2023/08/17 06:18:57;;;;;;;;;2.00;1.67;;;;;24.02;64.93;100183.19;5034949;28;45422;-75
2023/08/17 06:21:22;;;;;;;;;1.33;1.33;;;;;24.07;64.73;100177.69;5035332;28;45470;-75
2023/08/17 06:23:48;;;;;;;;;1.33;1.33;;;;;24.29;64.54;100162.75;5036606;28;45518;-74
2023/08/17 06:26:14;;;;;;;;;1.00;1.00;;;;;24.86;62.91;100178.69;5035985;28;45396;-74
2023/08/17 06:28:40;;;;;;;;;1.00;1.00;;;;;25.35;61.48;100176.97;5033476;28;46021;-74
2023/08/17 06:31:06;;;;;;;;;2.00;2.00;;;;;25.33;61.19;100177.00;5027195;28;45459;-75
2023/08/17 06:33:32;;;;;;;;;5.00;5.00;;;;;25.22;61.33;100164.97;5043124;28;45202;-74
2023/08/17 06:35:58;;;;;;;;;2.33;2.00;;;;;25.40;61.13;100167.81;5034387;28;45511;-74
2023/08/17 06:38:24;;;;;;;;;2.00;2.00;;;;;25.78;60.33;100173.53;5035586;28;45414;-74
2023/08/17 06:40:52;;;;;;;;;2.33;2.33;;;;;27.12;58.13;100157.28;5035344;28;45608;-74
2023/08/17 06:43:18;;;;;;;;;3.00;2.00;;;;;28.68;53.97;100172.28;5036742;28;45825;-75
2023/08/17 06:45:43;;;;;;;;;2.67;2.00;;;;;29.92;50.55;100166.59;5035294;28;45268;-75
2023/08/17 06:48:09;;;;;;;;;1.00;1.00;;;;;30.94;48.56;100161.56;5035146;28;45380;-74
2023/08/17 06:50:35;;;;;;;;;2.00;1.67;;;;;31.80;46.00;100160.72;5037561;28;45435;-74
2023/08/17 06:53:02;;;;;;;;;3.00;2.67;;;;;32.45;44.68;100162.75;5034904;28;45542;-74
2023/08/17 06:55:27;;;;;;;;;2.00;1.50;;;;;32.81;43.41;100150.41;5027944;28;45390;-75
2023/08/17 06:57:54;;;;;;;;;3.00;3.00;;;;;32.51;43.26;100148.84;5034888;28;46124;-75
2023/08/17 07:00:21;;;;;;;;;2.33;1.67;;;;;32.19;44.90;100157.28;5035764;28;45509;-74
2023/08/17 07:02:48;;;;;;;;;1.00;1.00;;;;;31.89;44.30;100155.59;5037316;28;45504;-74
2023/08/17 07:05:15;;;;;;;;;1.00;1.00;;;;;31.99;44.53;100157.69;5038038;28;45443;-74
2023/08/17 07:07:42;;;;;;;;;1.67;1.00;;;;;32.33;43.46;100150.06;5039603;28;46155;-74
2023/08/17 07:10:11;;;;;;;;;1.33;1.00;;;;;32.93;42.27;100138.78;5038587;28;45438;-75
2023/08/17 07:12:38;;;;;;;;;3.67;3.33;;;;;33.99;39.94;100157.41;5038590;28;45399;-75
2023/08/17 07:15:05;;;;;;;;;1.67;1.00;;;;;34.16;40.73;100150.75;5038356;28;45291;-74
2023/08/17 07:17:30;;;;;;;;;0.67;0.67;;;;;34.46;40.08;100142.13;5038483;28;45505;-74
2023/08/17 07:19:57;;;;;;;;;1.33;0.33;;;;;34.97;39.35;100152.66;5038490;28;45342;-75
2023/08/17 07:22:22;;;;;;;;;1.00;0.67;;;;;35.57;39.67;100149.75;5038591;28;45438;-75
2023/08/17 07:24:48;;;;;;;;;1.00;0.67;;;;;35.66;38.17;100140.91;5037262;28;45836;-75
2023/08/17 07:27:13;;;;;;;;;1.00;1.00;;;;;35.44;38.88;100150.75;5035837;28;46258;-76
2023/08/17 07:29:40;;;;;;;;;2.00;0.00;;;;;34.64;39.35;100145.28;5038158;28;45593;-75
2023/08/17 07:32:10;;;;;;;;;2.00;2.00;;;;;33.93;40.75;100149.72;5038406;28;45359;-76
2023/08/17 07:34:37;;;;;;;;;1.00;1.00;;;;;34.87;39.69;100151.66;5037426;28;45557;-75
2023/08/17 07:37:04;;;;;;;;;2.67;1.67;;;;;35.35;39.03;100150.63;5037556;28;45578;-76
2023/08/17 07:39:30;;;;;;;;;2.00;1.00;;;;;35.36;37.79;100153.22;5037570;28;45460;-75
2023/08/17 07:41:56;;;;;;;;;1.00;0.00;;;;;35.88;37.55;100139.13;5036572;28;45481;-77
2023/08/17 07:44:21;;;;;;;;;2.00;2.00;;;;;36.41;37.66;100128.34;5037371;28;45587;-76
2023/08/17 07:46:47;;;;;;;;;1.00;1.00;;;;;35.80;37.78;100137.06;5037469;28;45886;-76
2023/08/17 07:49:13;;;;;;;;;0.00;0.00;;;;;35.11;39.21;100131.72;5033838;28;45384;-76
2023/08/17 07:51:38;;;;;;;;;0.00;0.00;;;;;34.48;40.70;100134.75;5026907;28;45533;-77
2023/08/17 07:54:04;;;;;;;;;0.50;0.50;;;;;34.14;39.95;100136.41;5037967;28;45533;-78
2023/08/17 07:56:30;;;;;;;;;0.00;0.00;;;;;33.80;41.29;100128.09;5036587;28;46100;-78
2023/08/17 07:58:57;;;;;;;;;1.00;1.00;;;;;33.88;40.67;100140.09;5037179;28;45491;-77
2023/08/17 08:01:23;;;;;;;;;1.00;1.00;;;;;33.36;41.16;100116.78;5037921;28;45419;-79
2023/08/17 08:03:49;;;;;;;;;1.00;1.00;;;;;33.27;41.60;100139.97;5029117;28;47162;-79
2023/08/17 08:06:15;;;;;;;;;4.33;3.00;;;;;32.96;41.13;100135.84;5033564;28;47645;-79
2023/08/17 08:08:41;;;;;;;;;2.67;1.67;;;;;33.11;41.83;100124.91;5032317;28;45482;-79
2023/08/17 08:11:09;;;;;;;;;3.33;3.33;;;;;33.57;40.95;100143.31;5028880;28;45631;-79
2023/08/17 08:13:35;;;;;;;;;4.00;3.67;;;;;34.01;40.22;100125.63;5037036;28;45407;-77
2023/08/17 08:16:01;;;;;;;;;4.33;2.67;;;;;33.91;41.30;100140.84;5035715;28;45417;-78
2023/08/17 08:18:26;;;;;;;;;3.67;3.33;;;;;33.58;41.32;100135.03;5031592;28;45787;-78
2023/08/17 08:20:52;;;;;;;;;3.00;3.00;;;;;33.13;41.21;100123.84;5037233;28;45426;-80
2023/08/17 08:23:18;;;;;;;;;0.00;0.00;;;;;33.03;42.52;100136.28;5037913;28;45641;-79
2023/08/17 08:25:43;;;;;;;;;3.67;2.33;;;;;32.89;41.99;100126.44;5033358;28;47146;-78
2023/08/17 08:28:09;;;;;;;;;2.33;2.33;;;;;32.78;42.76;100129.00;5033731;28;45662;-76
2023/08/17 08:30:35;;;;;;;;;5.33;4.00;;;;;32.61;42.45;100131.06;5055828;28;45767;-75
2023/08/17 08:33:02;;;;;;;;;3.00;3.00;;;;;32.52;43.05;100128.06;5040062;28;45473;-76
2023/08/17 08:35:28;;;;;;;;;3.00;3.00;;;;;32.40;43.27;100119.81;5028924;28;45574;-74
2023/08/17 08:37:55;;;;;;;;;3.67;3.33;;;;;32.28;43.87;100131.47;5035222;28;45624;-76
2023/08/17 08:40:27;;;;;;;;;3.67;3.67;;;;;32.20;44.34;100125.72;5034909;28;45555;-77
2023/08/17 08:42:53;;;;;;;;;4.67;4.33;;;;;32.17;44.67;100118.69;5036146;28;45596;-74
2023/08/17 08:45:21;;;;;;;;;4.67;4.00;;;;;32.03;43.87;100108.81;5035673;28;45537;-77
2023/08/17 08:47:47;;;;;;;;;4.67;4.00;;;;;32.03;44.46;100102.50;5035866;28;45466;-75
2023/08/17 08:50:18;;;;;;;;;3.67;2.00;;;;;32.43;44.23;100105.22;5036225;28;45424;-75
2023/08/17 08:52:57;;;;;;;;;4.33;3.00;;;;;32.43;43.66;100094.41;5036781;28;45336;-74
2023/08/17 08:55:33;;;;;;;;;4.00;4.00;;;;;32.64;44.58;100084.84;5035064;28;46793;-75
2023/08/17 08:57:58;;;;;;;;;6.67;5.33;;;;;32.86;43.78;100100.44;5034177;28;45350;-77
2023/08/17 09:00:25;;;;;;;;;4.00;4.00;;;;;32.77;43.94;100105.63;5034220;28;45563;-78
2023/08/17 09:02:52;;;;;;;;;4.33;4.33;;;;;33.11;43.13;100085.22;5035305;28;45687;-79
2023/08/17 09:05:18;;;;;;;;;4.00;3.00;;;;;33.74;42.79;100102.31;5033731;28;45534;-78
2023/08/17 09:07:46;;;;;;;;;3.67;3.00;;;;;34.03;42.29;100096.56;5034802;28;45859;-78
2023/08/17 09:10:12;;;;;;;;;4.33;4.33;;;;;34.17;41.69;100090.13;5034353;28;45343;-78
2023/08/17 09:12:39;;;;;;;;;3.00;3.00;;;;;34.75;40.43;100087.50;5034106;28;45570;-78
2023/08/17 09:15:06;;;;;;;;;4.00;3.67;;;;;35.31;39.65;100073.97;5035840;28;45428;-79
2023/08/17 09:17:34;;;;;;;;;4.00;3.67;;;;;36.47;38.19;100067.09;5034112;28;45414;-79
2023/08/17 09:20:00;;;;;;;;;3.67;3.67;;;;;37.29;36.52;100083.50;5033903;28;45707;-78
2023/08/17 09:22:46;;;;;;;;;3.67;3.67;;;;;37.47;35.72;100086.44;5033703;28;45573;-78
2023/08/17 09:25:23;;;;;;;;;4.33;4.33;;;;;37.37;35.60;100080.09;5047870;28;46357;-79
2023/08/17 09:27:51;;;;;;;;;6.00;5.67;;;;;37.42;36.60;100037.84;5032487;28;45924;-78
2023/08/17 09:30:17;;;;;;;;;5.33;5.00;;;;;38.18;34.41;100072.69;5034357;28;45547;-78
2023/08/17 09:32:42;;;;;;;;;11.00;9.33;;;;;38.65;34.93;100074.66;5034638;28;45638;-79
2023/08/17 09:35:09;;;;;;;;;6.00;5.00;;;;;39.02;34.46;100075.72;5034173;28;46398;-78
2023/08/17 09:37:34;;;;;;;;;5.33;5.00;;;;;39.35;34.09;100080.59;5034489;28;45411;-79
2023/08/17 09:40:00;;;;;;;;;5.00;5.00;;;;;39.71;34.66;100071.66;5033891;28;45240;-78
2023/08/17 09:42:27;;;;;;;;;6.00;6.00;;;;;39.88;33.08;100053.59;5035469;28;45494;-78
2023/08/17 09:44:53;;;;;;;;;4.33;4.33;;;;;40.16;32.20;100057.94;5035385;28;46378;-78
2023/08/17 09:47:22;;;;;;;;;4.33;4.33;;;;;40.24;33.53;100067.25;5035710;28;45625;-78
2023/08/17 09:49:57;;;;;;;;;4.00;4.00;;;;;40.66;32.53;100061.09;5035503;28;45501;-81
2023/08/17 09:52:26;;;;;;;;;13.67;11.67;;;;;40.72;31.88;100063.19;5034179;28;45518;-79
2023/08/17 09:54:54;;;;;;;;;6.00;5.67;;;;;40.93;32.60;100062.81;5033479;28;47159;-80
2023/08/17 09:57:20;;;;;;;;;4.33;4.00;;;;;41.10;31.54;100033.63;5035214;28;45431;-80
2023/08/17 09:59:46;;;;;;;;;11.00;10.67;;;;;41.67;31.26;100044.81;5035671;28;45293;-79
2023/08/17 10:02:23;;;;;;;;;8.67;8.67;;;;;42.10;32.24;100052.94;5035628;28;45553;-80
2023/08/17 10:04:56;;;;;;;;;6.00;6.00;;;;;42.67;29.68;100041.94;5035933;28;46054;-80
2023/08/17 10:07:29;;;;;;;;;7.00;6.00;;;;;42.63;28.91;100043.34;5031146;28;45710;-80
2023/08/17 10:10:03;;;;;;;;;12.00;11.67;;;;;42.79;30.19;100052.56;5034332;28;45489;-80
2023/08/17 10:12:36;;;;;;;;;9.00;8.33;;;;;42.84;29.21;100044.66;5032292;28;45467;-79
2023/08/17 10:15:08;;;;;;;;;7.33;7.00;;;;;42.91;30.00;100023.72;5030099;28;46621;-79
2023/08/17 10:17:43;;;;;;;;;6.00;6.00;;;;;42.93;29.41;100023.53;5019964;28;45687;-79
2023/08/17 10:20:10;;;;;;;;;7.00;7.00;;;;;42.62;29.71;100002.31;5034467;28;45474;-79
2023/08/17 10:23:00;;;;;;;;;7.33;6.67;;;;;42.94;28.89;100028.00;5025771;28;45265;-80
2023/08/17 10:25:28;;;;;;;;;5.33;5.33;;;;;43.17;27.90;100020.69;5022256;28;47094;-80
2023/08/17 10:27:54;;;;;;;;;6.33;6.33;;;;;43.20;28.68;100022.25;5024918;28;45598;-79
2023/08/17 10:30:20;;;;;;;;;6.67;6.00;;;;;43.32;28.52;100023.56;5033999;28;45471;-80
2023/08/17 10:32:46;;;;;;;;;7.33;7.00;;;;;43.31;28.38;100010.84;5033580;28;45545;-78
2023/08/17 10:35:14;;;;;;;;;9.00;8.33;;;;;43.29;28.12;100010.19;5037883;28;46131;-80
2023/08/17 10:37:40;;;;;;;;;7.00;7.00;;;;;43.05;28.33;100014.72;5037274;28;45494;-83
2023/08/17 10:40:07;;;;;;;;;7.00;7.00;;;;;43.07;28.81;100004.41;5036978;28;45410;-80
2023/08/17 10:42:35;;;;;;;;;6.00;6.00;;;;;43.03;29.22;99997.56;5037878;28;45481;-80
2023/08/17 10:45:03;;;;;;;;;5.33;5.33;;;;;42.57;28.87;99986.38;5037172;28;46239;-83
2023/08/17 10:47:32;;;;;;;;;8.33;7.67;;;;;42.07;29.42;99996.53;5035348;28;45947;-78
2023/08/17 10:50:23;;;;;;;;;8.00;8.00;;;;;41.46;30.26;100006.00;5037659;28;45429;-78
2023/08/17 10:52:50;;;;;;;;;8.33;7.67;;;;;41.58;30.73;99990.09;5035814;28;45758;-81
2023/08/17 10:55:16;;;;;;;;;6.67;6.67;;;;;41.42;29.94;99986.31;5037141;28;46096;-81
2023/08/17 10:57:43;;;;;;;;;6.00;6.00;;;;;41.46;30.58;99989.56;5037041;28;45487;-78
2023/08/17 11:00:16;;;;;;;;;7.00;7.00;;;;;41.27;31.30;99991.59;5037191;28;45617;-80
2023/08/17 11:02:54;;;;;;;;;8.33;8.33;;;;;41.15;31.26;99985.53;5040000;28;45500;-80
2023/08/17 11:05:56;;;;;;;;;11.00;11.00;;;;;40.68;31.29;99935.81;5033866;28;46914;-80
2023/08/17 11:08:29;;;;;;;;;9.00;8.33;;;;;40.72;32.08;99964.59;4971059;28;45452;-78
2023/08/17 11:10:59;;;;;;;;;11.00;10.00;;;;;40.47;32.11;99972.69;5041076;28;47477;-87
2023/08/17 11:13:28;;;;;;;;;8.33;8.33;;;;;40.10;32.88;99959.22;5036999;28;45658;-78
2023/08/17 11:15:54;;;;;;;;;7.33;7.33;;;;;39.70;32.75;99947.75;5037524;28;45336;-80
2023/08/17 11:18:19;;;;;;;;;12.33;12.00;;;;;39.25;34.02;99954.13;5038453;28;45414;-79
2023/08/17 11:20:46;;;;;;;;;8.67;7.33;;;;;38.96;33.99;99933.28;5021006;28;45517;-78
2023/08/17 11:23:12;;;;;;;;;7.00;7.00;;;;;38.84;34.06;99948.16;5038869;28;45383;-78